createdAt,value
2023-03-24T07:20:22.714Z,15.86
2023-03-24T07:25:27.164Z,16.11
2023-03-24T07:30:40.634Z,16.26
2023-03-24T07:35:44.067Z,16.28
2023-03-24T07:40:46.362Z,16.25
2023-03-24T07:45:48.355Z,16.29
2023-03-24T07:50:52.593Z,16.46
2023-03-24T07:56:15.979Z,16.46
2023-03-24T08:01:27.087Z,16.97
2023-03-24T08:06:32.466Z,17.00
2023-03-24T08:11:34.660Z,16.76
2023-03-24T08:16:38.905Z,16.78
2023-03-24T08:21:41.067Z,16.70
2023-03-24T08:26:43.102Z,16.85
2023-03-24T08:31:44.745Z,16.78
2023-03-24T08:36:46.370Z,16.83
2023-03-24T08:41:50.192Z,16.86
2023-03-24T08:46:51.875Z,16.78
2023-03-24T08:51:53.513Z,16.63
2023-03-24T08:56:55.449Z,16.67
2023-03-24T09:01:57.179Z,16.78
2023-03-24T09:07:02.843Z,17.25
2023-03-24T09:12:04.821Z,17.38
2023-03-24T09:17:06.993Z,17.63
2023-03-24T09:22:08.676Z,17.57
2023-03-24T09:27:10.883Z,17.38
2023-03-24T09:32:12.556Z,17.41
2023-03-24T09:37:14.264Z,17.30
2023-03-24T09:42:24.103Z,17.19
2023-03-24T09:47:30.971Z,17.46
2023-03-24T09:52:39.981Z,19.09
2023-03-24T09:57:45.634Z,19.32
2023-03-24T10:02:49.702Z,19.08
2023-03-24T10:08:12.736Z,18.26
2023-03-24T10:13:29.852Z,18.26
2023-03-24T10:18:46.121Z,18.09
2023-03-24T10:24:18.825Z,17.90
2023-03-24T10:29:28.862Z,18.04
2023-03-24T10:34:33.836Z,18.16
2023-03-24T10:39:43.948Z,18.38
2023-03-24T10:44:48.391Z,19.31
2023-03-24T10:50:12.324Z,23.85
2023-03-24T10:55:19.525Z,22.28
2023-03-24T11:00:26.834Z,19.48
2023-03-24T11:05:33.344Z,19.10
2023-03-24T11:10:34.991Z,18.70
2023-03-24T11:15:37.456Z,18.18
2023-03-24T11:21:09.439Z,18.21
2023-03-24T11:26:19.089Z,17.66
2023-03-24T11:31:27.902Z,17.49
2023-03-24T11:36:36.025Z,18.19
2023-03-24T11:41:52.676Z,18.68
2023-03-24T11:47:10.214Z,18.41
2023-03-24T11:52:24.189Z,18.21
2023-03-24T11:57:48.829Z,18.32
2023-03-24T12:02:59.525Z,17.90
2023-03-24T12:08:26.462Z,18.08
2023-03-24T12:13:39.380Z,19.39
2023-03-24T12:18:57.006Z,19.80
2023-03-24T12:24:17.399Z,19.16
2023-03-24T12:30:14.407Z,18.12
2023-03-24T12:35:38.219Z,18.09
2023-03-24T12:40:53.300Z,17.65
2023-03-24T12:46:06.089Z,17.35
2023-03-24T12:51:29.198Z,17.13
2023-03-24T12:56:48.167Z,17.07
2023-03-24T13:02:22.303Z,16.79
2023-03-24T13:07:28.520Z,16.89
2023-03-24T13:12:40.823Z,16.87
2023-03-24T13:17:59.821Z,17.00
2023-03-24T13:23:42.588Z,17.23
2023-03-24T13:29:10.888Z,17.27
2023-03-24T13:34:31.754Z,17.29
2023-03-24T13:39:36.152Z,17.38
2023-03-24T13:44:41.283Z,17.16
2023-03-24T13:49:53.748Z,17.02
2023-03-24T13:55:00.057Z,16.79
2023-03-24T14:00:11.896Z,16.92
2023-03-24T14:05:22.806Z,13.22
2023-03-24T14:10:24.396Z,12.06
2023-03-24T14:15:55.839Z,11.91
2023-03-24T14:20:57.552Z,12.08
2023-03-24T14:25:59.411Z,11.65
2023-03-24T14:31:10.198Z,11.85
2023-03-24T14:36:20.822Z,12.73
2023-03-24T14:41:38.994Z,12.34
2023-03-24T14:46:48.075Z,11.87
2023-03-24T14:52:09.263Z,11.89
2023-03-24T14:57:20.349Z,12.24
2023-03-24T15:02:41.382Z,12.09
2023-03-24T15:07:44.428Z,11.84
2023-03-24T15:12:47.701Z,11.59
2023-03-24T15:17:51.581Z,11.54
2023-03-24T15:22:55.393Z,11.34
2023-03-24T15:27:57.902Z,11.31
2023-03-24T15:32:59.704Z,11.30
2023-03-24T15:38:01.872Z,11.47
2023-03-24T15:43:17.997Z,11.53
2023-03-24T15:48:24.700Z,11.68
2023-03-24T15:53:29.469Z,11.84
2023-03-24T15:58:34.511Z,11.97
2023-03-24T16:03:36.204Z,11.80
2023-03-24T16:08:41.153Z,11.85
2023-03-24T16:13:45.005Z,11.91
2023-03-24T16:18:48.763Z,11.99
2023-03-24T16:23:52.386Z,11.95
2023-03-24T16:28:56.987Z,12.07
2023-03-24T16:33:59.402Z,12.02
2023-03-24T16:39:05.196Z,12.08
2023-03-24T16:44:06.873Z,12.04
2023-03-24T16:49:16.513Z,12.13
2023-03-24T16:54:19.970Z,12.08
2023-03-24T16:59:21.596Z,12.05
2023-03-24T17:04:25.916Z,12.07
2023-03-24T17:09:28.647Z,11.93
2023-03-24T17:14:31.162Z,11.89
2023-03-24T17:19:33.129Z,11.84
2023-03-24T17:24:36.706Z,11.89
2023-03-24T17:29:38.383Z,11.76
2023-03-24T17:34:42.369Z,11.76
2023-03-24T17:39:44.284Z,11.72
2023-03-24T17:44:45.969Z,11.72
2023-03-24T17:49:47.640Z,11.70
2023-03-24T17:54:49.245Z,11.73
2023-03-24T17:59:52.889Z,11.68
2023-03-24T18:04:55.190Z,11.70
2023-03-24T18:09:56.809Z,11.83
2023-03-24T18:14:58.417Z,11.70
2023-03-24T18:20:10.221Z,11.70
2023-03-24T18:25:13.591Z,11.76
2023-03-24T18:30:16.947Z,11.65
2023-03-24T18:35:18.709Z,11.61
2023-03-24T18:40:20.332Z,11.56
2023-03-24T18:45:21.957Z,11.48
2023-03-24T18:50:23.552Z,11.43
2023-03-24T18:55:26.712Z,11.43
2023-03-24T19:00:28.660Z,11.31
2023-03-24T19:05:33.405Z,11.35
2023-03-24T19:10:36.833Z,11.33
2023-03-24T19:15:39.349Z,11.24
2023-03-24T19:20:42.090Z,11.22
2023-03-24T19:25:43.854Z,11.11
2023-03-24T19:30:45.599Z,10.98
2023-03-24T19:35:48.695Z,11.01
2023-03-24T19:40:52.775Z,11.01
2023-03-24T19:45:55.983Z,10.91
2023-03-24T19:50:57.664Z,10.86
2023-03-24T19:55:59.904Z,10.83
2023-03-24T20:01:01.606Z,10.65
2023-03-24T20:06:05.112Z,10.73
2023-03-24T20:11:09.386Z,10.68
2023-03-24T20:16:11.145Z,10.53
2023-03-24T20:21:20.023Z,10.50
2023-03-24T20:26:21.978Z,10.55
2023-03-24T20:31:24.881Z,10.45
2023-03-24T20:36:26.512Z,10.46
2023-03-24T20:41:28.219Z,10.65
2023-03-24T20:46:29.903Z,10.73
2023-03-24T20:51:31.529Z,10.68
2023-03-24T20:56:34.614Z,10.65
2023-03-24T21:01:36.781Z,10.57
2023-03-24T21:06:38.438Z,10.49
2023-03-24T21:11:40.071Z,10.54
2023-03-24T21:16:41.709Z,10.51
2023-03-24T21:21:44.694Z,10.48
2023-03-24T21:26:49.418Z,10.50
2023-03-24T21:31:51.539Z,10.48
2023-03-24T21:36:55.605Z,10.48
2023-03-24T21:41:57.450Z,10.52
2023-03-24T21:47:00.628Z,10.53
2023-03-24T21:52:04.440Z,10.62
2023-03-24T21:57:06.125Z,10.80
2023-03-24T22:02:14.483Z,10.98
2023-03-24T22:07:18.959Z,10.95
2023-03-24T22:12:20.806Z,11.02
2023-03-24T22:17:22.453Z,11.10
2023-03-24T22:22:24.207Z,11.00
2023-03-24T22:27:25.873Z,11.11
2023-03-24T22:32:27.888Z,11.18
2023-03-24T22:37:30.502Z,11.26
2023-03-24T22:42:32.137Z,11.33
2023-03-24T22:47:34.059Z,11.41
2023-03-24T22:52:35.760Z,11.39
2023-03-24T22:57:37.382Z,11.33
2023-03-24T23:02:39.148Z,11.48
2023-03-24T23:07:42.150Z,11.41
2023-03-24T23:12:44.066Z,11.46
2023-03-24T23:17:46.231Z,11.46
2023-03-24T23:22:48.093Z,11.32
2023-03-24T23:27:49.972Z,11.28
2023-03-24T23:32:51.838Z,11.32
2023-03-24T23:37:53.577Z,11.27
2023-03-24T23:42:55.173Z,11.24
2023-03-24T23:47:56.971Z,11.15
2023-03-24T23:52:59.290Z,11.01
2023-03-24T23:58:01.101Z,11.05
